sensor_id;sensor_type;location;lat;lon;timestamp;pressure;altitude;pressure_sealevel;temperature;humidity
60920;BME280;59039;52.108;19.942;2024-03-02T00:00:49;100251.94;;;6.87;85.06
60920;BME280;59039;52.108;19.942;2024-03-02T00:03:14;100254.94;;;6.85;85.07
60920;BME280;59039;52.108;19.942;2024-03-02T00:05:39;100251.20;;;6.83;85.04
60920;BME280;59039;52.108;19.942;2024-03-02T00:08:06;100248.92;;;6.80;85.17
60920;BME280;59039;52.108;19.942;2024-03-02T00:10:38;100245.49;;;6.78;85.17
60920;BME280;59039;52.108;19.942;2024-03-02T00:13:04;100246.88;;;6.75;85.26
60920;BME280;59039;52.108;19.942;2024-03-02T00:18:00;100238.72;;;6.71;85.36
60920;BME280;59039;52.108;19.942;2024-03-02T00:20:26;100235.95;;;6.68;85.31
60920;BME280;59039;52.108;19.942;2024-03-02T00:22:51;100241.00;;;6.64;85.36
60920;BME280;59039;52.108;19.942;2024-03-02T00:25:16;100238.77;;;6.60;85.27
60920;BME280;59039;52.108;19.942;2024-03-02T00:27:42;100237.83;;;6.57;85.21
60920;BME280;59039;52.108;19.942;2024-03-02T00:33:01;100239.91;;;6.49;85.35
60920;BME280;59039;52.108;19.942;2024-03-02T00:35:27;100236.60;;;6.46;85.37
60920;BME280;59039;52.108;19.942;2024-03-02T00:37:52;100236.31;;;6.43;85.68
60920;BME280;59039;52.108;19.942;2024-03-02T00:40:17;100238.38;;;6.40;85.96
60920;BME280;59039;52.108;19.942;2024-03-02T00:42:42;100244.92;;;6.39;85.70
60920;BME280;59039;52.108;19.942;2024-03-02T00:45:08;100240.10;;;6.37;85.74
60920;BME280;59039;52.108;19.942;2024-03-02T00:47:38;100238.89;;;6.34;85.76
60920;BME280;59039;52.108;19.942;2024-03-02T00:50:05;100235.98;;;6.32;85.77
60920;BME280;59039;52.108;19.942;2024-03-02T00:52:30;100230.95;;;6.30;85.89
60920;BME280;59039;52.108;19.942;2024-03-02T00:54:57;100227.36;;;6.27;85.91
60920;BME280;59039;52.108;19.942;2024-03-02T00:57:23;100222.23;;;6.24;86.79
60920;BME280;59039;52.108;19.942;2024-03-02T00:59:48;100216.42;;;6.23;86.77
60920;BME280;59039;52.108;19.942;2024-03-02T01:02:13;100218.27;;;6.23;87.00
60920;BME280;59039;52.108;19.942;2024-03-02T01:04:39;100214.67;;;6.20;87.96
60920;BME280;59039;52.108;19.942;2024-03-02T01:07:04;100205.41;;;6.21;87.48
60920;BME280;59039;52.108;19.942;2024-03-02T01:09:29;100207.41;;;6.21;87.44
60920;BME280;59039;52.108;19.942;2024-03-02T01:11:54;100214.08;;;6.21;87.37
60920;BME280;59039;52.108;19.942;2024-03-02T01:14:20;100215.27;;;6.20;87.57
60920;BME280;59039;52.108;19.942;2024-03-02T01:16:45;100213.33;;;6.19;87.72
60920;BME280;59039;52.108;19.942;2024-03-02T01:19:10;100219.77;;;6.20;87.90
60920;BME280;59039;52.108;19.942;2024-03-02T01:21:35;100224.45;;;6.20;88.73
60920;BME280;59039;52.108;19.942;2024-03-02T01:24:01;100221.95;;;6.21;88.08
60920;BME280;59039;52.108;19.942;2024-03-02T01:26:26;100222.64;;;6.24;88.31
60920;BME280;59039;52.108;19.942;2024-03-02T01:28:51;100221.71;;;6.24;88.70
60920;BME280;59039;52.108;19.942;2024-03-02T01:31:16;100221.45;;;6.27;88.21
60920;BME280;59039;52.108;19.942;2024-03-02T01:33:41;100213.67;;;6.28;88.02
60920;BME280;59039;52.108;19.942;2024-03-02T01:36:07;100213.42;;;6.29;88.14
60920;BME280;59039;52.108;19.942;2024-03-02T01:38:32;100212.48;;;6.29;88.03
60920;BME280;59039;52.108;19.942;2024-03-02T01:40:57;100213.72;;;6.30;88.24
60920;BME280;59039;52.108;19.942;2024-03-02T01:43:22;100214.70;;;6.31;88.37
60920;BME280;59039;52.108;19.942;2024-03-02T01:45:47;100211.13;;;6.31;88.27
60920;BME280;59039;52.108;19.942;2024-03-02T01:48:13;100205.09;;;6.32;88.32
60920;BME280;59039;52.108;19.942;2024-03-02T01:50:38;100203.78;;;6.32;88.32
60920;BME280;59039;52.108;19.942;2024-03-02T01:53:04;100198.55;;;6.32;88.27
60920;BME280;59039;52.108;19.942;2024-03-02T01:55:29;100198.35;;;6.33;88.31
60920;BME280;59039;52.108;19.942;2024-03-02T01:57:54;100200.17;;;6.33;88.17
60920;BME280;59039;52.108;19.942;2024-03-02T02:00:20;100196.73;;;6.32;88.12
60920;BME280;59039;52.108;19.942;2024-03-02T02:02:46;100194.27;;;6.32;88.37
60920;BME280;59039;52.108;19.942;2024-03-02T02:05:12;100191.76;;;6.32;88.28
60920;BME280;59039;52.108;19.942;2024-03-02T02:07:38;100192.71;;;6.33;88.27
60920;BME280;59039;52.108;19.942;2024-03-02T02:10:03;100188.84;;;6.34;88.60
60920;BME280;59039;52.108;19.942;2024-03-02T02:12:29;100188.55;;;6.36;88.70
60920;BME280;59039;52.108;19.942;2024-03-02T02:14:54;100192.11;;;6.38;88.80
60920;BME280;59039;52.108;19.942;2024-03-02T02:17:19;100187.13;;;6.41;88.67
60920;BME280;59039;52.108;19.942;2024-03-02T02:19:44;100187.37;;;6.45;88.79
60920;BME280;59039;52.108;19.942;2024-03-02T02:22:10;100189.08;;;6.48;88.75
60920;BME280;59039;52.108;19.942;2024-03-02T02:24:36;100188.33;;;6.50;88.82
60920;BME280;59039;52.108;19.942;2024-03-02T02:27:04;100186.50;;;6.53;88.80
60920;BME280;59039;52.108;19.942;2024-03-02T02:29:29;100181.16;;;6.56;88.74
60920;BME280;59039;52.108;19.942;2024-03-02T02:31:54;100182.02;;;6.59;88.73
60920;BME280;59039;52.108;19.942;2024-03-02T02:34:20;100181.06;;;6.61;88.75
60920;BME280;59039;52.108;19.942;2024-03-02T02:36:45;100178.77;;;6.63;88.70
60920;BME280;59039;52.108;19.942;2024-03-02T02:39:13;100179.46;;;6.65;88.74
60920;BME280;59039;52.108;19.942;2024-03-02T02:41:40;100180.20;;;6.67;88.73
60920;BME280;59039;52.108;19.942;2024-03-02T02:44:05;100170.80;;;6.67;88.74
60920;BME280;59039;52.108;19.942;2024-03-02T02:46:30;100168.79;;;6.70;88.66
60920;BME280;59039;52.108;19.942;2024-03-02T02:48:56;100165.16;;;6.71;88.67
60920;BME280;59039;52.108;19.942;2024-03-02T02:51:21;100167.71;;;6.70;88.58
60920;BME280;59039;52.108;19.942;2024-03-02T02:53:46;100169.65;;;6.73;88.54
60920;BME280;59039;52.108;19.942;2024-03-02T02:56:11;100169.91;;;6.74;88.54
60920;BME280;59039;52.108;19.942;2024-03-02T02:58:36;100165.58;;;6.76;88.55
60920;BME280;59039;52.108;19.942;2024-03-02T03:01:02;100168.70;;;6.77;88.48
60920;BME280;59039;52.108;19.942;2024-03-02T03:03:27;100165.02;;;6.78;88.51
60920;BME280;59039;52.108;19.942;2024-03-02T03:05:52;100161.73;;;6.78;88.45
60920;BME280;59039;52.108;19.942;2024-03-02T03:08:17;100162.59;;;6.79;88.28
60920;BME280;59039;52.108;19.942;2024-03-02T03:10:43;100165.91;;;6.76;88.22
60920;BME280;59039;52.108;19.942;2024-03-02T03:13:08;100164.29;;;6.76;88.05
60920;BME280;59039;52.108;19.942;2024-03-02T03:15:36;100168.84;;;6.76;87.91
60920;BME280;59039;52.108;19.942;2024-03-02T03:18:05;100166.80;;;6.74;87.87
60920;BME280;59039;52.108;19.942;2024-03-02T03:20:31;100165.78;;;6.74;87.96
60920;BME280;59039;52.108;19.942;2024-03-02T03:22:57;100163.47;;;6.71;87.75
60920;BME280;59039;52.108;19.942;2024-03-02T03:25:22;100164.24;;;6.71;87.91
60920;BME280;59039;52.108;19.942;2024-03-02T03:27:47;100164.81;;;6.70;87.98
60920;BME280;59039;52.108;19.942;2024-03-02T03:30:13;100168.93;;;6.71;88.16
60920;BME280;59039;52.108;19.942;2024-03-02T03:32:38;100162.71;;;6.72;88.26
60920;BME280;59039;52.108;19.942;2024-03-02T03:35:04;100157.34;;;6.73;88.28
60920;BME280;59039;52.108;19.942;2024-03-02T03:37:29;100153.91;;;6.76;88.39
60920;BME280;59039;52.108;19.942;2024-03-02T03:39:54;100152.60;;;6.76;88.44
60920;BME280;59039;52.108;19.942;2024-03-02T03:42:20;100149.02;;;6.77;88.49
60920;BME280;59039;52.108;19.942;2024-03-02T03:44:45;100151.09;;;6.79;88.44
60920;BME280;59039;52.108;19.942;2024-03-02T03:47:10;100149.02;;;6.80;88.49
60920;BME280;59039;52.108;19.942;2024-03-02T03:49:35;100151.17;;;6.82;88.46
60920;BME280;59039;52.108;19.942;2024-03-02T03:52:00;100156.19;;;6.84;88.51
60920;BME280;59039;52.108;19.942;2024-03-02T03:54:26;100154.57;;;6.84;88.52
60920;BME280;59039;52.108;19.942;2024-03-02T03:56:51;100154.28;;;6.85;88.47
60920;BME280;59039;52.108;19.942;2024-03-02T03:59:16;100157.73;;;6.87;88.45
60920;BME280;59039;52.108;19.942;2024-03-02T04:01:41;100161.83;;;6.89;88.37
60920;BME280;59039;52.108;19.942;2024-03-02T04:04:07;100166.24;;;6.93;88.39
60920;BME280;59039;52.108;19.942;2024-03-02T04:06:32;100162.34;;;6.94;88.35
60920;BME280;59039;52.108;19.942;2024-03-02T04:08:57;100161.45;;;6.94;88.18
60920;BME280;59039;52.108;19.942;2024-03-02T04:11:22;100153.54;;;6.94;87.92
60920;BME280;59039;52.108;19.942;2024-03-02T04:13:47;100157.75;;;6.93;87.88
60920;BME280;59039;52.108;19.942;2024-03-02T04:16:13;100159.02;;;6.91;87.97
60920;BME280;59039;52.108;19.942;2024-03-02T04:18:38;100159.30;;;6.89;88.05
60920;BME280;59039;52.108;19.942;2024-03-02T04:21:03;100155.85;;;6.90;88.11
60920;BME280;59039;52.108;19.942;2024-03-02T04:23:28;100154.44;;;6.89;88.08
60920;BME280;59039;52.108;19.942;2024-03-02T04:25:53;100155.01;;;6.89;88.14
60920;BME280;59039;52.108;19.942;2024-03-02T04:28:19;100155.92;;;6.89;88.20
60920;BME280;59039;52.108;19.942;2024-03-02T04:30:44;100152.48;;;6.89;88.22
60920;BME280;59039;52.108;19.942;2024-03-02T04:33:09;100154.64;;;6.89;88.16
60920;BME280;59039;52.108;19.942;2024-03-02T04:35:34;100156.97;;;6.89;88.21
60920;BME280;59039;52.108;19.942;2024-03-02T04:37:59;100158.21;;;6.89;88.16
60920;BME280;59039;52.108;19.942;2024-03-02T04:40:25;100158.04;;;6.89;88.18
60920;BME280;59039;52.108;19.942;2024-03-02T04:42:50;100160.07;;;6.89;88.10
60920;BME280;59039;52.108;19.942;2024-03-02T04:45:15;100155.27;;;6.88;88.22
60920;BME280;59039;52.108;19.942;2024-03-02T04:47:40;100158.35;;;6.88;88.11
60920;BME280;59039;52.108;19.942;2024-03-02T04:50:06;100161.58;;;6.88;88.15
60920;BME280;59039;52.108;19.942;2024-03-02T04:52:31;100164.23;;;6.89;88.15
60920;BME280;59039;52.108;19.942;2024-03-02T04:54:56;100165.49;;;6.88;88.06
60920;BME280;59039;52.108;19.942;2024-03-02T04:57:22;100171.52;;;6.88;88.14
60920;BME280;59039;52.108;19.942;2024-03-02T04:59:47;100173.40;;;6.85;88.33
60920;BME280;59039;52.108;19.942;2024-03-02T05:02:12;100173.39;;;6.83;88.21
60920;BME280;59039;52.108;19.942;2024-03-02T05:04:37;100175.94;;;6.81;88.24
60920;BME280;59039;52.108;19.942;2024-03-02T05:07:02;100177.91;;;6.79;88.19
60920;BME280;59039;52.108;19.942;2024-03-02T05:09:28;100181.06;;;6.78;88.21
60920;BME280;59039;52.108;19.942;2024-03-02T05:11:53;100180.73;;;6.78;88.25
60920;BME280;59039;52.108;19.942;2024-03-02T05:14:18;100180.53;;;6.78;88.15
60920;BME280;59039;52.108;19.942;2024-03-02T05:16:43;100178.08;;;6.77;88.20
60920;BME280;59039;52.108;19.942;2024-03-02T05:19:08;100184.27;;;6.76;88.20
60920;BME280;59039;52.108;19.942;2024-03-02T05:21:34;100183.34;;;6.75;88.24
60920;BME280;59039;52.108;19.942;2024-03-02T05:23:59;100185.23;;;6.74;88.27
60920;BME280;59039;52.108;19.942;2024-03-02T05:26:25;100192.62;;;6.72;88.23
60920;BME280;59039;52.108;19.942;2024-03-02T05:28:50;100190.84;;;6.69;88.32
60920;BME280;59039;52.108;19.942;2024-03-02T05:31:15;100193.68;;;6.67;88.42
60920;BME280;59039;52.108;19.942;2024-03-02T05:33:41;100196.34;;;6.65;88.44
60920;BME280;59039;52.108;19.942;2024-03-02T05:36:06;100195.69;;;6.65;88.51
60920;BME280;59039;52.108;19.942;2024-03-02T05:38:34;100194.83;;;6.65;88.44
60920;BME280;59039;52.108;19.942;2024-03-02T05:40:59;100196.17;;;6.64;88.44
60920;BME280;59039;52.108;19.942;2024-03-02T05:43:25;100196.23;;;6.61;88.75
60920;BME280;59039;52.108;19.942;2024-03-02T05:45:50;100201.32;;;6.60;88.44
60920;BME280;59039;52.108;19.942;2024-03-02T05:48:15;100202.36;;;6.57;88.36
60920;BME280;59039;52.108;19.942;2024-03-02T05:50:40;100207.21;;;6.55;88.15
60920;BME280;59039;52.108;19.942;2024-03-02T05:53:05;100214.84;;;6.50;88.33
60920;BME280;59039;52.108;19.942;2024-03-02T05:55:31;100213.70;;;6.46;88.31
60920;BME280;59039;52.108;19.942;2024-03-02T05:57:56;100217.75;;;6.43;88.18
60920;BME280;59039;52.108;19.942;2024-03-02T06:00:21;100217.73;;;6.39;88.30
60920;BME280;59039;52.108;19.942;2024-03-02T06:02:46;100223.52;;;6.35;88.40
60920;BME280;59039;52.108;19.942;2024-03-02T06:05:12;100228.66;;;6.32;88.48
60920;BME280;59039;52.108;19.942;2024-03-02T06:07:37;100226.85;;;6.27;88.61
60920;BME280;59039;52.108;19.942;2024-03-02T06:10:02;100225.11;;;6.22;88.72
60920;BME280;59039;52.108;19.942;2024-03-02T06:12:28;100222.11;;;6.20;88.77
60920;BME280;59039;52.108;19.942;2024-03-02T06:14:55;100224.03;;;6.18;88.98
60920;BME280;59039;52.108;19.942;2024-03-02T06:17:20;100229.73;;;6.17;89.23
60920;BME280;59039;52.108;19.942;2024-03-02T06:19:46;100234.93;;;6.17;89.30
60920;BME280;59039;52.108;19.942;2024-03-02T06:22:11;100231.95;;;6.18;89.39
60920;BME280;59039;52.108;19.942;2024-03-02T06:24:36;100224.77;;;6.18;89.85
60920;BME280;59039;52.108;19.942;2024-03-02T06:27:02;100227.23;;;6.19;89.79
60920;BME280;59039;52.108;19.942;2024-03-02T06:29:27;100227.27;;;6.21;89.78
60920;BME280;59039;52.108;19.942;2024-03-02T06:31:52;100233.42;;;6.22;89.83
60920;BME280;59039;52.108;19.942;2024-03-02T06:34:17;100240.59;;;6.22;89.82
60920;BME280;59039;52.108;19.942;2024-03-02T06:36:43;100246.25;;;6.23;90.01
60920;BME280;59039;52.108;19.942;2024-03-02T06:39:08;100245.34;;;6.23;89.90
60920;BME280;59039;52.108;19.942;2024-03-02T06:41:33;100241.99;;;6.25;89.97
60920;BME280;59039;52.108;19.942;2024-03-02T06:43:59;100241.20;;;6.26;90.02
60920;BME280;59039;52.108;19.942;2024-03-02T06:46:24;100241.42;;;6.27;90.04
60920;BME280;59039;52.108;19.942;2024-03-02T06:48:49;100238.91;;;6.29;89.96
60920;BME280;59039;52.108;19.942;2024-03-02T06:51:14;100241.69;;;6.31;89.98
60920;BME280;59039;52.108;19.942;2024-03-02T06:53:39;100240.73;;;6.32;90.03
60920;BME280;59039;52.108;19.942;2024-03-02T06:56:05;100242.55;;;6.33;89.94
60920;BME280;59039;52.108;19.942;2024-03-02T06:58:31;100245.53;;;6.34;90.03
60920;BME280;59039;52.108;19.942;2024-03-02T07:00:57;100244.43;;;6.35;89.93
60920;BME280;59039;52.108;19.942;2024-03-02T07:03:22;100243.40;;;6.36;89.97
60920;BME280;59039;52.108;19.942;2024-03-02T07:05:47;100248.69;;;6.39;90.02
60920;BME280;59039;52.108;19.942;2024-03-02T07:08:12;100249.66;;;6.40;89.89
60920;BME280;59039;52.108;19.942;2024-03-02T07:10:37;100251.73;;;6.42;89.98
60920;BME280;59039;52.108;19.942;2024-03-02T07:13:03;100247.52;;;6.42;90.01
60920;BME280;59039;52.108;19.942;2024-03-02T07:15:28;100247.17;;;6.42;89.93
60920;BME280;59039;52.108;19.942;2024-03-02T07:17:53;100253.52;;;6.44;89.96
60920;BME280;59039;52.108;19.942;2024-03-02T07:20:18;100259.08;;;6.46;89.96
60920;BME280;59039;52.108;19.942;2024-03-02T07:22:44;100261.91;;;6.49;89.95
60920;BME280;59039;52.108;19.942;2024-03-02T07:25:09;100265.50;;;6.51;89.91
60920;BME280;59039;52.108;19.942;2024-03-02T07:27:34;100270.54;;;6.53;89.92
60920;BME280;59039;52.108;19.942;2024-03-02T07:29:59;100267.06;;;6.56;89.94
60920;BME280;59039;52.108;19.942;2024-03-02T07:32:24;100269.41;;;6.58;89.93
60920;BME280;59039;52.108;19.942;2024-03-02T07:34:50;100272.46;;;6.60;89.95
60920;BME280;59039;52.108;19.942;2024-03-02T07:37:15;100273.23;;;6.61;89.93
60920;BME280;59039;52.108;19.942;2024-03-02T07:39:40;100270.23;;;6.65;89.92
60920;BME280;59039;52.108;19.942;2024-03-02T07:42:05;100271.02;;;6.66;89.84
60920;BME280;59039;52.108;19.942;2024-03-02T07:44:31;100268.05;;;6.69;89.87
60920;BME280;59039;52.108;19.942;2024-03-02T07:46:56;100268.50;;;6.73;89.89
60920;BME280;59039;52.108;19.942;2024-03-02T07:49:21;100266.66;;;6.75;89.79
60920;BME280;59039;52.108;19.942;2024-03-02T07:51:46;100274.36;;;6.80;89.77
60920;BME280;59039;52.108;19.942;2024-03-02T07:54:12;100276.45;;;6.82;89.67
60920;BME280;59039;52.108;19.942;2024-03-02T07:56:37;100276.11;;;6.84;89.65
60920;BME280;59039;52.108;19.942;2024-03-02T07:59:03;100279.63;;;6.87;89.56
60920;BME280;59039;52.108;19.942;2024-03-02T08:01:29;100278.92;;;6.89;89.54
60920;BME280;59039;52.108;19.942;2024-03-02T08:03:54;100275.16;;;6.91;89.48
60920;BME280;59039;52.108;19.942;2024-03-02T08:06:20;100273.89;;;6.93;89.50
60920;BME280;59039;52.108;19.942;2024-03-02T08:08:45;100277.79;;;6.98;89.63
60920;BME280;59039;52.108;19.942;2024-03-02T08:11:10;100281.68;;;7.03;89.62
60920;BME280;59039;52.108;19.942;2024-03-02T08:13:35;100281.92;;;7.06;89.44
60920;BME280;59039;52.108;19.942;2024-03-02T08:16:01;100284.17;;;7.12;89.38
60920;BME280;59039;52.108;19.942;2024-03-02T08:18:26;100291.44;;;7.15;89.19
60920;BME280;59039;52.108;19.942;2024-03-02T08:20:51;100290.17;;;7.17;89.06
60920;BME280;59039;52.108;19.942;2024-03-02T08:23:17;100293.17;;;7.20;88.84
60920;BME280;59039;52.108;19.942;2024-03-02T08:25:42;100293.61;;;7.21;88.61
60920;BME280;59039;52.108;19.942;2024-03-02T08:28:07;100295.15;;;7.22;88.42
60920;BME280;59039;52.108;19.942;2024-03-02T08:30:32;100288.49;;;7.22;88.39
60920;BME280;59039;52.108;19.942;2024-03-02T08:32:58;100290.69;;;7.23;88.35
60920;BME280;59039;52.108;19.942;2024-03-02T08:35:23;100292.73;;;7.24;88.27
60920;BME280;59039;52.108;19.942;2024-03-02T08:37:48;100286.91;;;7.25;88.14
60920;BME280;59039;52.108;19.942;2024-03-02T08:40:14;100287.06;;;7.26;88.22
60920;BME280;59039;52.108;19.942;2024-03-02T08:42:40;100290.48;;;7.28;88.18
60920;BME280;59039;52.108;19.942;2024-03-02T08:45:06;100291.62;;;7.29;88.07
60920;BME280;59039;52.108;19.942;2024-03-02T08:47:32;100292.80;;;7.30;88.18
60920;BME280;59039;52.108;19.942;2024-03-02T08:49:57;100294.94;;;7.32;88.30
60920;BME280;59039;52.108;19.942;2024-03-02T08:52:22;100292.77;;;7.34;88.42
60920;BME280;59039;52.108;19.942;2024-03-02T08:54:47;100294.79;;;7.38;88.43
60920;BME280;59039;52.108;19.942;2024-03-02T08:57:12;100292.08;;;7.42;88.50
60920;BME280;59039;52.108;19.942;2024-03-02T08:59:38;100291.34;;;7.46;88.62
60920;BME280;59039;52.108;19.942;2024-03-02T09:02:04;100290.04;;;7.49;88.36
60920;BME280;59039;52.108;19.942;2024-03-02T09:04:29;100288.05;;;7.51;88.50
60920;BME280;59039;52.108;19.942;2024-03-02T09:06:54;100288.99;;;7.52;88.43
60920;BME280;59039;52.108;19.942;2024-03-02T09:09:19;100286.30;;;7.55;88.27
60920;BME280;59039;52.108;19.942;2024-03-02T09:11:46;100285.59;;;7.57;88.05
60920;BME280;59039;52.108;19.942;2024-03-02T09:14:11;100284.73;;;7.56;87.93
60920;BME280;59039;52.108;19.942;2024-03-02T09:16:36;100282.54;;;7.56;87.90
60920;BME280;59039;52.108;19.942;2024-03-02T09:19:02;100286.49;;;7.56;87.77
60920;BME280;59039;52.108;19.942;2024-03-02T09:21:27;100291.65;;;7.57;87.62
60920;BME280;59039;52.108;19.942;2024-03-02T09:23:52;100289.29;;;7.57;87.53
60920;BME280;59039;52.108;19.942;2024-03-02T09:26:17;100291.67;;;7.57;87.71
60920;BME280;59039;52.108;19.942;2024-03-02T09:28:43;100295.41;;;7.57;87.66
60920;BME280;59039;52.108;19.942;2024-03-02T09:31:08;100292.98;;;7.58;87.67
60920;BME280;59039;52.108;19.942;2024-03-02T09:33:33;100296.59;;;7.60;87.70
60920;BME280;59039;52.108;19.942;2024-03-02T09:35:59;100296.73;;;7.63;87.73
60920;BME280;59039;52.108;19.942;2024-03-02T09:38:24;100299.27;;;7.64;87.60
60920;BME280;59039;52.108;19.942;2024-03-02T09:40:49;100298.51;;;7.67;87.62
60920;BME280;59039;52.108;19.942;2024-03-02T09:43:14;100300.94;;;7.70;87.70
60920;BME280;59039;52.108;19.942;2024-03-02T09:45:40;100297.08;;;7.72;87.62
60920;BME280;59039;52.108;19.942;2024-03-02T09:48:05;100297.73;;;7.76;87.61
60920;BME280;59039;52.108;19.942;2024-03-02T09:50:31;100300.44;;;7.80;87.48
60920;BME280;59039;52.108;19.942;2024-03-02T09:52:56;100297.40;;;7.83;87.51
60920;BME280;59039;52.108;19.942;2024-03-02T09:55:21;100301.52;;;7.85;87.26
60920;BME280;59039;52.108;19.942;2024-03-02T09:57:46;100304.50;;;7.88;87.22
60920;BME280;59039;52.108;19.942;2024-03-02T10:00:12;100303.05;;;7.90;87.29
60920;BME280;59039;52.108;19.942;2024-03-02T10:02:37;100308.65;;;7.94;87.24
60920;BME280;59039;52.108;19.942;2024-03-02T10:05:03;100309.41;;;7.98;87.14
60920;BME280;59039;52.108;19.942;2024-03-02T10:07:28;100306.14;;;8.00;86.87
60920;BME280;59039;52.108;19.942;2024-03-02T10:09:53;100305.46;;;8.01;86.72
60920;BME280;59039;52.108;19.942;2024-03-02T10:12:19;100309.05;;;8.02;86.49
60920;BME280;59039;52.108;19.942;2024-03-02T10:14:44;100305.31;;;8.01;86.51
60920;BME280;59039;52.108;19.942;2024-03-02T10:17:11;100296.63;;;8.03;86.63
60920;BME280;59039;52.108;19.942;2024-03-02T10:19:37;100299.98;;;8.08;86.58
60920;BME280;59039;52.108;19.942;2024-03-02T10:22:07;100300.87;;;8.10;86.17
60920;BME280;59039;52.108;19.942;2024-03-02T10:24:36;100294.98;;;8.11;86.12
60920;BME280;59039;52.108;19.942;2024-03-02T10:27:02;100294.98;;;8.13;86.11
60920;BME280;59039;52.108;19.942;2024-03-02T10:29:29;100292.24;;;8.18;86.41
60920;BME280;59039;52.108;19.942;2024-03-02T10:31:55;100294.25;;;8.21;86.29
60920;BME280;59039;52.108;19.942;2024-03-02T10:34:21;100290.86;;;8.24;86.29
60920;BME280;59039;52.108;19.942;2024-03-02T10:36:47;100290.48;;;8.28;86.12
60920;BME280;59039;52.108;19.942;2024-03-02T10:39:13;100290.20;;;8.31;86.05
60920;BME280;59039;52.108;19.942;2024-03-02T10:41:39;100287.11;;;8.34;85.94
60920;BME280;59039;52.108;19.942;2024-03-02T10:44:08;100281.73;;;8.35;85.72
60920;BME280;59039;52.108;19.942;2024-03-02T10:46:35;100276.72;;;8.39;85.60
60920;BME280;59039;52.108;19.942;2024-03-02T10:51:28;100283.64;;;8.44;85.41
60920;BME280;59039;52.108;19.942;2024-03-02T10:53:54;100282.30;;;8.49;85.30
60920;BME280;59039;52.108;19.942;2024-03-02T10:56:31;100283.87;;;8.49;85.08
60920;BME280;59039;52.108;19.942;2024-03-02T10:59:03;100283.58;;;8.51;85.09
60920;BME280;59039;52.108;19.942;2024-03-02T11:01:32;100281.43;;;8.52;84.82
60920;BME280;59039;52.108;19.942;2024-03-02T11:03:58;100280.16;;;8.52;84.60
60920;BME280;59039;52.108;19.942;2024-03-02T11:06:25;100283.70;;;8.53;84.75
60920;BME280;59039;52.108;19.942;2024-03-02T11:08:53;100282.06;;;8.55;84.62
60920;BME280;59039;52.108;19.942;2024-03-02T11:11:25;100282.84;;;8.57;84.50
60920;BME280;59039;52.108;19.942;2024-03-02T11:13:55;100280.71;;;8.58;84.57
60920;BME280;59039;52.108;19.942;2024-03-02T11:16:32;100281.96;;;8.60;84.12
60920;BME280;59039;52.108;19.942;2024-03-02T11:18:58;100278.82;;;8.61;84.23
60920;BME280;59039;52.108;19.942;2024-03-02T11:21:24;100275.57;;;8.63;84.20
60920;BME280;59039;52.108;19.942;2024-03-02T11:23:50;100271.75;;;8.65;83.99
60920;BME280;59039;52.108;19.942;2024-03-02T11:26:22;100271.17;;;8.67;84.16
60920;BME280;59039;52.108;19.942;2024-03-02T11:28:47;100267.37;;;8.71;84.05
60920;BME280;59039;52.108;19.942;2024-03-02T11:31:13;100259.15;;;8.74;84.06
60920;BME280;59039;52.108;19.942;2024-03-02T11:33:38;100263.60;;;8.79;83.94
60920;BME280;59039;52.108;19.942;2024-03-02T11:36:06;100259.40;;;8.83;84.04
60920;BME280;59039;52.108;19.942;2024-03-02T11:38:32;100256.58;;;8.86;83.56
60920;BME280;59039;52.108;19.942;2024-03-02T11:41:03;100258.34;;;8.88;83.56
60920;BME280;59039;52.108;19.942;2024-03-02T11:43:30;100256.13;;;8.90;83.65
60920;BME280;59039;52.108;19.942;2024-03-02T11:46:04;100251.48;;;8.94;83.71
60920;BME280;59039;52.108;19.942;2024-03-02T11:48:30;100250.17;;;8.98;83.19
60920;BME280;59039;52.108;19.942;2024-03-02T11:50:58;100249.73;;;8.98;83.19
60920;BME280;59039;52.108;19.942;2024-03-02T11:53:23;100248.22;;;9.01;83.03
60920;BME280;59039;52.108;19.942;2024-03-02T11:55:49;100248.65;;;9.04;82.92
60920;BME280;59039;52.108;19.942;2024-03-02T11:58:16;100253.39;;;9.06;83.07
60920;BME280;59039;52.108;19.942;2024-03-02T12:00:41;100253.60;;;9.09;82.85
60920;BME280;59039;52.108;19.942;2024-03-02T12:03:08;100254.27;;;9.10;82.51
60920;BME280;59039;52.108;19.942;2024-03-02T12:05:34;100254.98;;;9.10;82.45
60920;BME280;59039;52.108;19.942;2024-03-02T12:08:05;100255.98;;;9.11;82.42
60920;BME280;59039;52.108;19.942;2024-03-02T12:10:31;100254.45;;;9.12;82.06
60920;BME280;59039;52.108;19.942;2024-03-02T12:12:59;100256.98;;;9.13;82.36
60920;BME280;59039;52.108;19.942;2024-03-02T12:15:26;100260.67;;;9.16;82.56
60920;BME280;59039;52.108;19.942;2024-03-02T12:17:56;100261.27;;;9.19;82.52
60920;BME280;59039;52.108;19.942;2024-03-02T12:20:21;100255.91;;;9.23;82.31
60920;BME280;59039;52.108;19.942;2024-03-02T12:22:46;100249.45;;;9.26;82.43
60920;BME280;59039;52.108;19.942;2024-03-02T12:25:12;100248.90;;;9.29;82.44
60920;BME280;59039;52.108;19.942;2024-03-02T12:27:39;100252.90;;;9.33;81.94
60920;BME280;59039;52.108;19.942;2024-03-02T12:30:05;100252.96;;;9.36;81.97
60920;BME280;59039;52.108;19.942;2024-03-02T12:32:31;100250.69;;;9.39;81.93
60920;BME280;59039;52.108;19.942;2024-03-02T12:34:56;100247.22;;;9.41;81.74
60920;BME280;59039;52.108;19.942;2024-03-02T12:37:21;100244.90;;;9.43;81.48
60920;BME280;59039;52.108;19.942;2024-03-02T12:39:46;100241.45;;;9.44;81.19
60920;BME280;59039;52.108;19.942;2024-03-02T12:42:12;100240.30;;;9.45;81.33
60920;BME280;59039;52.108;19.942;2024-03-02T12:44:37;100237.05;;;9.47;81.49
60920;BME280;59039;52.108;19.942;2024-03-02T12:47:02;100237.25;;;9.50;81.16
60920;BME280;59039;52.108;19.942;2024-03-02T12:49:27;100237.33;;;9.51;81.00